Saturday, August 02, 2014
08:41 UTC
  |  Log In   |  Register Free
Airport Search:

Henderson Field Airport
(KACZ)

Henderson Field Airport Diagram
No Airport Diagram Available

FAA data valid effective July 24, 2014 until September 18, 2014 (unless otherwise noted).

 
 
 
 
 
 
 
 
 
 
 
 
 
 

Current Aviation Weather for Henderson Field Airport (KACZ)

The most recent METAR observation for KDPL was updated at: 1835 UTC
METAR Summary (Translated METAR)
KDPL
281835Z AUTO 34003KT 10SM BKN049 BKN055 BKN075 31/20 A2979 RMK AO2 T03130204
KCTZ
(18.9 nm SW from KDPL)
281835Z AUTO 21003KT 10SM BKN060 BKN080 32/23 A2978 RMK AO2 T03200226
TAF Summary (Translated TAF)
KGSB
(20.4 nm NE from KDPL)
0120/0302 12009KT 6000 -SHRA OVC007 QNH3003INS TEMPO 0120/0123 OVC010 BECMG 0204/0205 18006KT 9999 VCSH BKN020 QNH3006INS BECMG 0208/0209 18006KT 6000 -SHRA BKN020 QNH3005INS TEMPO 0221/0302 17012G18KT 4800 -TSRA BKN018CB TX26/0217Z TN21/0208Z AMD 012019 LAST NO AMDS AFT 0120 NEXT 0404
  Airport Weather Conditions for KACZ

Current weather conditions are
not available for ACZ


The nearest NOAA weather station
is at DPL, (17 nm NE from ACZ)
  
 Current Weather at DPL
70° F
Fog/Mist
North winds at 3.5 mph
DPL NOAA Radar

Pressure: 30.07 in
Humidity: 96%
Wind: North at 3.5 MPH (3 KT)
Dew Point: 68.9°F
Visibility: 1.00 mi


Airport Weather Forecast for KACZ

Translated METAR and TAF for KDPL
Translated METAR for KDPL (0835 UTC 02 August 2014)
found at http://aviationweather.gov/adds/metars/
 
METAR text: KDPL 020815Z AUTO 35003KT 1/2SM FG OVC002 21/20 A3006 RMK AO2 T02100202
Conditions at: KDPL (KENANSVILLE/DUPL, NC, US) observed 0815 UTC 02 August 2014
Temperature: 21.0°C (70°F)
Dewpoint: 20.2°C (68°F) [RH = 95%]
Pressure (altimeter): 30.06 inches Hg (1018.0 mb)
Winds: from the N (350 degrees) at 3 MPH (3 knots; 1.6 m/s)
Visibility: 0.50 miles (0.80 km)
Ceiling: 200 feet AGL
Clouds: overcast cloud deck at 200 feet AGL
Weather: FG  (fog)
Translated TAF for KDPL

There is no translated TAF available for this airport

Find All Airport Services Find A Hotel Find A Rental Car Find A Golf Course Find A Restaurant $100 Hamburger



FBO's on the Field
FBO Company Facility Photos Services Transportation Aviation Fuel Prices: Prices include tax
Catering Weather Repair Courtesy Rental Type 100LL JetA JetA+ MOGAS 8087
 
Henderson Field

This FBO has not yet been rated
FS:Phillips66
Last Updated: Jul-15
Login to update fuel prices
SS:
Contact Henderson FieldMore FBO Information
 
Add another FBO Facility Photos Catering Weather Repair Courtesy Rental Type 100LL JetA JetA+ MOGAS 8087
Services Transportation Aviation Fuel Prices: Prices include tax


GlobalAir.com Airport Resource Center model-print
model-print
model-print
model-print